sensor_id;sensor_type;location;lat;lon;timestamp;temperature;humidity
73277;DHT22;61501;43.316;5.372;2023-04-01T00:00:20;14.30;80.90
73277;DHT22;61501;43.316;5.372;2023-04-01T00:02:46;14.30;80.20
73277;DHT22;61501;43.316;5.372;2023-04-01T00:05:12;14.30;77.20
73277;DHT22;61501;43.316;5.372;2023-04-01T00:07:38;14.40;76.30
73277;DHT22;61501;43.316;5.372;2023-04-01T00:10:09;14.40;76.80
73277;DHT22;61501;43.316;5.372;2023-04-01T00:12:36;14.40;77.70
73277;DHT22;61501;43.316;5.372;2023-04-01T00:15:03;14.40;77.00
73277;DHT22;61501;43.316;5.372;2023-04-01T00:17:29;14.40;76.00
73277;DHT22;61501;43.316;5.372;2023-04-01T00:19:56;14.30;77.40
73277;DHT22;61501;43.316;5.372;2023-04-01T00:22:22;14.30;76.10
73277;DHT22;61501;43.316;5.372;2023-04-01T00:24:48;14.30;74.60
73277;DHT22;61501;43.316;5.372;2023-04-01T00:27:14;14.30;76.40
73277;DHT22;61501;43.316;5.372;2023-04-01T00:29:44;14.30;74.60
73277;DHT22;61501;43.316;5.372;2023-04-01T00:32:10;14.20;75.60
73277;DHT22;61501;43.316;5.372;2023-04-01T00:34:36;14.30;76.10
73277;DHT22;61501;43.316;5.372;2023-04-01T00:37:02;14.20;76.80
73277;DHT22;61501;43.316;5.372;2023-04-01T00:39:31;14.20;76.10
73277;DHT22;61501;43.316;5.372;2023-04-01T00:41:58;14.20;74.40
73277;DHT22;61501;43.316;5.372;2023-04-01T00:44:27;14.20;75.00
73277;DHT22;61501;43.316;5.372;2023-04-01T00:46:53;14.20;75.40
73277;DHT22;61501;43.316;5.372;2023-04-01T00:49:21;14.10;75.00
73277;DHT22;61501;43.316;5.372;2023-04-01T00:51:52;14.10;74.70
73277;DHT22;61501;43.316;5.372;2023-04-01T00:54:19;14.20;73.50
73277;DHT22;61501;43.316;5.372;2023-04-01T00:56:50;14.20;72.80
73277;DHT22;61501;43.316;5.372;2023-04-01T00:59:23;14.20;73.00
73277;DHT22;61501;43.316;5.372;2023-04-01T01:01:49;14.20;74.20
73277;DHT22;61501;43.316;5.372;2023-04-01T01:04:41;14.10;74.40
73277;DHT22;61501;43.316;5.372;2023-04-01T01:07:32;14.20;74.20
73277;DHT22;61501;43.316;5.372;2023-04-01T01:10:10;14.20;72.50
73277;DHT22;61501;43.316;5.372;2023-04-01T01:13:00;14.10;74.10
73277;DHT22;61501;43.316;5.372;2023-04-01T01:32:59;14.00;75.90
73277;DHT22;61501;43.316;5.372;2023-04-01T01:35:33;13.90;74.40
73277;DHT22;61501;43.316;5.372;2023-04-01T01:38:04;13.90;72.30
73277;DHT22;61501;43.316;5.372;2023-04-01T01:40:32;13.90;73.70
73277;DHT22;61501;43.316;5.372;2023-04-01T01:43:03;13.90;73.50
73277;DHT22;61501;43.316;5.372;2023-04-01T01:45:33;13.90;75.10
73277;DHT22;61501;43.316;5.372;2023-04-01T01:48:01;13.80;74.20
73277;DHT22;61501;43.316;5.372;2023-04-01T01:50:28;13.80;74.50
73277;DHT22;61501;43.316;5.372;2023-04-01T01:53:05;13.80;75.70
73277;DHT22;61501;43.316;5.372;2023-04-01T01:55:33;13.80;76.50
73277;DHT22;61501;43.316;5.372;2023-04-01T01:58:17;13.70;76.10
73277;DHT22;61501;43.316;5.372;2023-04-01T02:00:48;13.80;74.90
73277;DHT22;61501;43.316;5.372;2023-04-01T02:03:15;13.70;75.80
73277;DHT22;61501;43.316;5.372;2023-04-01T02:05:42;13.70;75.70
73277;DHT22;61501;43.316;5.372;2023-04-01T02:08:16;13.70;76.40
73277;DHT22;61501;43.316;5.372;2023-04-01T02:10:51;13.60;76.50
73277;DHT22;61501;43.316;5.372;2023-04-01T02:13:24;13.70;76.10
73277;DHT22;61501;43.316;5.372;2023-04-01T02:15:55;13.70;77.10
73277;DHT22;61501;43.316;5.372;2023-04-01T02:18:23;13.60;77.60
73277;DHT22;61501;43.316;5.372;2023-04-01T02:20:50;13.60;78.10
73277;DHT22;61501;43.316;5.372;2023-04-01T02:23:16;13.60;78.40
73277;DHT22;61501;43.316;5.372;2023-04-01T02:25:42;13.60;79.20
73277;DHT22;61501;43.316;5.372;2023-04-01T02:28:09;13.60;80.50
73277;DHT22;61501;43.316;5.372;2023-04-01T02:30:37;13.60;80.30
73277;DHT22;61501;43.316;5.372;2023-04-01T02:33:04;13.60;82.10
73277;DHT22;61501;43.316;5.372;2023-04-01T02:35:32;13.60;82.10
73277;DHT22;61501;43.316;5.372;2023-04-01T02:37:58;13.60;81.60
73277;DHT22;61501;43.316;5.372;2023-04-01T02:40:24;13.60;84.70
73277;DHT22;61501;43.316;5.372;2023-04-01T02:42:49;13.60;84.00
73277;DHT22;61501;43.316;5.372;2023-04-01T02:45:15;13.60;85.40
73277;DHT22;61501;43.316;5.372;2023-04-01T02:47:41;13.50;85.00
73277;DHT22;61501;43.316;5.372;2023-04-01T02:50:08;13.50;85.10
73277;DHT22;61501;43.316;5.372;2023-04-01T02:52:34;13.50;86.10
73277;DHT22;61501;43.316;5.372;2023-04-01T02:55:00;13.50;84.30
73277;DHT22;61501;43.316;5.372;2023-04-01T02:57:25;13.50;84.70
73277;DHT22;61501;43.316;5.372;2023-04-01T02:59:51;13.50;85.00
73277;DHT22;61501;43.316;5.372;2023-04-01T03:02:17;13.40;87.40
73277;DHT22;61501;43.316;5.372;2023-04-01T03:04:43;13.40;86.20
73277;DHT22;61501;43.316;5.372;2023-04-01T03:07:09;13.40;86.40
73277;DHT22;61501;43.316;5.372;2023-04-01T03:09:36;13.40;85.90
73277;DHT22;61501;43.316;5.372;2023-04-01T03:12:02;13.40;84.20
73277;DHT22;61501;43.316;5.372;2023-04-01T03:14:28;13.40;86.40
73277;DHT22;61501;43.316;5.372;2023-04-01T03:16:54;13.30;84.50
73277;DHT22;61501;43.316;5.372;2023-04-01T03:19:20;13.30;85.90
73277;DHT22;61501;43.316;5.372;2023-04-01T03:21:45;13.30;84.30
73277;DHT22;61501;43.316;5.372;2023-04-01T03:24:11;13.30;84.70
73277;DHT22;61501;43.316;5.372;2023-04-01T03:26:37;13.30;85.40
73277;DHT22;61501;43.316;5.372;2023-04-01T03:29:02;13.30;86.30
73277;DHT22;61501;43.316;5.372;2023-04-01T03:31:28;13.30;87.00
73277;DHT22;61501;43.316;5.372;2023-04-01T03:33:53;13.30;86.30
73277;DHT22;61501;43.316;5.372;2023-04-01T03:36:19;13.30;86.90
73277;DHT22;61501;43.316;5.372;2023-04-01T03:38:45;13.30;85.80
73277;DHT22;61501;43.316;5.372;2023-04-01T03:41:15;13.30;88.00
73277;DHT22;61501;43.316;5.372;2023-04-01T03:43:41;13.20;86.70
73277;DHT22;61501;43.316;5.372;2023-04-01T03:46:07;13.30;83.20
73277;DHT22;61501;43.316;5.372;2023-04-01T03:48:33;13.20;85.20
73277;DHT22;61501;43.316;5.372;2023-04-01T03:50:58;13.30;86.40
73277;DHT22;61501;43.316;5.372;2023-04-01T03:53:24;13.20;87.70
73277;DHT22;61501;43.316;5.372;2023-04-01T03:55:50;13.20;86.90
73277;DHT22;61501;43.316;5.372;2023-04-01T03:58:17;13.20;87.00
73277;DHT22;61501;43.316;5.372;2023-04-01T04:00:42;13.20;85.70
73277;DHT22;61501;43.316;5.372;2023-04-01T04:03:08;13.20;86.50
73277;DHT22;61501;43.316;5.372;2023-04-01T04:05:33;13.20;85.00
73277;DHT22;61501;43.316;5.372;2023-04-01T04:07:59;13.20;86.90
73277;DHT22;61501;43.316;5.372;2023-04-01T04:10:25;13.20;86.20
73277;DHT22;61501;43.316;5.372;2023-04-01T04:12:51;13.20;85.80
73277;DHT22;61501;43.316;5.372;2023-04-01T04:15:17;13.20;86.20
73277;DHT22;61501;43.316;5.372;2023-04-01T04:17:44;13.20;86.20
73277;DHT22;61501;43.316;5.372;2023-04-01T04:20:10;13.20;84.80
73277;DHT22;61501;43.316;5.372;2023-04-01T04:22:36;13.20;86.20
73277;DHT22;61501;43.316;5.372;2023-04-01T04:25:02;13.20;85.80
73277;DHT22;61501;43.316;5.372;2023-04-01T04:27:28;13.20;86.10
73277;DHT22;61501;43.316;5.372;2023-04-01T04:29:53;13.20;86.80
73277;DHT22;61501;43.316;5.372;2023-04-01T04:32:19;13.20;86.10
73277;DHT22;61501;43.316;5.372;2023-04-01T04:34:45;13.20;85.30
73277;DHT22;61501;43.316;5.372;2023-04-01T04:37:10;13.10;86.20
73277;DHT22;61501;43.316;5.372;2023-04-01T04:39:36;13.20;85.60
73277;DHT22;61501;43.316;5.372;2023-04-01T04:42:02;13.20;86.70
73277;DHT22;61501;43.316;5.372;2023-04-01T04:44:27;13.20;85.60
73277;DHT22;61501;43.316;5.372;2023-04-01T04:46:53;13.20;85.70
73277;DHT22;61501;43.316;5.372;2023-04-01T04:49:18;13.20;87.10
73277;DHT22;61501;43.316;5.372;2023-04-01T04:51:44;13.20;85.70
73277;DHT22;61501;43.316;5.372;2023-04-01T04:54:10;13.20;85.20
73277;DHT22;61501;43.316;5.372;2023-04-01T04:56:36;13.20;84.70
73277;DHT22;61501;43.316;5.372;2023-04-01T04:59:01;13.20;84.50
73277;DHT22;61501;43.316;5.372;2023-04-01T05:01:27;13.20;84.40
73277;DHT22;61501;43.316;5.372;2023-04-01T05:03:53;13.10;84.70
73277;DHT22;61501;43.316;5.372;2023-04-01T05:06:19;13.20;84.40
73277;DHT22;61501;43.316;5.372;2023-04-01T05:08:45;13.20;83.90
73277;DHT22;61501;43.316;5.372;2023-04-01T05:11:17;13.10;84.20
73277;DHT22;61501;43.316;5.372;2023-04-01T05:13:43;13.10;84.70
73277;DHT22;61501;43.316;5.372;2023-04-01T05:16:11;13.10;85.80
73277;DHT22;61501;43.316;5.372;2023-04-01T05:18:37;13.10;86.70
73277;DHT22;61501;43.316;5.372;2023-04-01T05:21:03;13.10;88.70
73277;DHT22;61501;43.316;5.372;2023-04-01T05:23:31;13.00;89.60
73277;DHT22;61501;43.316;5.372;2023-04-01T05:25:56;13.00;90.30
73277;DHT22;61501;43.316;5.372;2023-04-01T05:28:22;13.00;91.00
73277;DHT22;61501;43.316;5.372;2023-04-01T05:30:48;13.00;90.90
73277;DHT22;61501;43.316;5.372;2023-04-01T05:33:14;13.00;90.70
73277;DHT22;61501;43.316;5.372;2023-04-01T05:35:40;13.00;91.00
73277;DHT22;61501;43.316;5.372;2023-04-01T05:38:06;13.00;91.00
73277;DHT22;61501;43.316;5.372;2023-04-01T05:40:32;13.00;90.70
73277;DHT22;61501;43.316;5.372;2023-04-01T05:42:58;13.00;90.00
73277;DHT22;61501;43.316;5.372;2023-04-01T05:45:24;13.00;90.30
73277;DHT22;61501;43.316;5.372;2023-04-01T05:47:50;13.00;89.40
73277;DHT22;61501;43.316;5.372;2023-04-01T05:50:15;13.10;90.20
73277;DHT22;61501;43.316;5.372;2023-04-01T05:52:41;13.10;90.10
73277;DHT22;61501;43.316;5.372;2023-04-01T05:55:07;13.10;89.50
73277;DHT22;61501;43.316;5.372;2023-04-01T05:57:34;13.10;88.90
73277;DHT22;61501;43.316;5.372;2023-04-01T05:59:59;13.10;88.90
73277;DHT22;61501;43.316;5.372;2023-04-01T06:02:25;13.20;89.40
73277;DHT22;61501;43.316;5.372;2023-04-01T06:05:09;13.10;89.10
73277;DHT22;61501;43.316;5.372;2023-04-01T06:07:36;13.10;89.60
73277;DHT22;61501;43.316;5.372;2023-04-01T06:10:16;13.20;89.70
73277;DHT22;61501;43.316;5.372;2023-04-01T06:12:52;13.20;88.00
73277;DHT22;61501;43.316;5.372;2023-04-01T06:15:24;13.10;88.30
73277;DHT22;61501;43.316;5.372;2023-04-01T06:21:22;13.10;89.50
73277;DHT22;61501;43.316;5.372;2023-04-01T06:32:22;13.10;91.00
73277;DHT22;61501;43.316;5.372;2023-04-01T06:37:48;13.20;90.20
73277;DHT22;61501;43.316;5.372;2023-04-01T06:51:44;13.20;92.10
73277;DHT22;61501;43.316;5.372;2023-04-01T06:54:17;13.20;92.30
73277;DHT22;61501;43.316;5.372;2023-04-01T06:56:45;13.20;91.90
73277;DHT22;61501;43.316;5.372;2023-04-01T06:59:22;13.20;92.40
73277;DHT22;61501;43.316;5.372;2023-04-01T07:01:53;13.20;92.50
73277;DHT22;61501;43.316;5.372;2023-04-01T07:06:57;13.30;92.30
73277;DHT22;61501;43.316;5.372;2023-04-01T07:09:35;13.30;92.20
73277;DHT22;61501;43.316;5.372;2023-04-01T07:14:58;13.40;92.30
73277;DHT22;61501;43.316;5.372;2023-04-01T07:17:29;13.50;91.70
73277;DHT22;61501;43.316;5.372;2023-04-01T07:20:12;13.50;92.20
73277;DHT22;61501;43.316;5.372;2023-04-01T07:22:44;13.40;92.30
73277;DHT22;61501;43.316;5.372;2023-04-01T07:27:39;13.50;91.20
73277;DHT22;61501;43.316;5.372;2023-04-01T07:30:20;13.40;90.80
73277;DHT22;61501;43.316;5.372;2023-04-01T07:40:45;13.40;90.70
73277;DHT22;61501;43.316;5.372;2023-04-01T07:43:32;13.40;90.60
73277;DHT22;61501;43.316;5.372;2023-04-01T07:48:57;13.30;90.60
73277;DHT22;61501;43.316;5.372;2023-04-01T07:55:09;13.40;90.10
73277;DHT22;61501;43.316;5.372;2023-04-01T08:00:30;13.40;90.70
73277;DHT22;61501;43.316;5.372;2023-04-01T08:05:58;13.40;90.60
73277;DHT22;61501;43.316;5.372;2023-04-01T08:08:41;13.40;90.30
73277;DHT22;61501;43.316;5.372;2023-04-01T08:21:52;13.60;89.00
73277;DHT22;61501;43.316;5.372;2023-04-01T08:26:49;13.40;89.40
73277;DHT22;61501;43.316;5.372;2023-04-01T08:29:19;13.50;89.80
73277;DHT22;61501;43.316;5.372;2023-04-01T08:32:05;13.60;89.00
73277;DHT22;61501;43.316;5.372;2023-04-01T08:34:40;13.60;88.70
73277;DHT22;61501;43.316;5.372;2023-04-01T08:37:19;13.60;90.10
73277;DHT22;61501;43.316;5.372;2023-04-01T08:39:48;13.60;89.60
73277;DHT22;61501;43.316;5.372;2023-04-01T08:56:25;14.40;85.10
73277;DHT22;61501;43.316;5.372;2023-04-01T08:58:59;14.50;86.00
73277;DHT22;61501;43.316;5.372;2023-04-01T09:04:17;14.70;84.70
73277;DHT22;61501;43.316;5.372;2023-04-01T09:12:39;14.20;84.80
73277;DHT22;61501;43.316;5.372;2023-04-01T09:15:42;14.20;85.50
73277;DHT22;61501;43.316;5.372;2023-04-01T09:24:08;14.40;83.60
73277;DHT22;61501;43.316;5.372;2023-04-01T09:32:25;14.40;85.80
73277;DHT22;61501;43.316;5.372;2023-04-01T09:35:24;14.40;84.50
73277;DHT22;61501;43.316;5.372;2023-04-01T09:41:04;14.50;85.80
73277;DHT22;61501;43.316;5.372;2023-04-01T09:49:51;14.80;84.60
73277;DHT22;61501;43.316;5.372;2023-04-01T10:04:14;14.70;83.20
73277;DHT22;61501;43.316;5.372;2023-04-01T10:15:11;14.90;79.40
73277;DHT22;61501;43.316;5.372;2023-04-01T10:17:46;14.80;80.20
73277;DHT22;61501;43.316;5.372;2023-04-01T10:20:36;14.70;80.20
73277;DHT22;61501;43.316;5.372;2023-04-01T10:29:07;14.90;80.00
73277;DHT22;61501;43.316;5.372;2023-04-01T10:43:25;15.30;78.10
73277;DHT22;61501;43.316;5.372;2023-04-01T10:48:34;15.20;77.00
73277;DHT22;61501;43.316;5.372;2023-04-01T10:54:36;15.20;80.30
73277;DHT22;61501;43.316;5.372;2023-04-01T11:11:34;15.50;73.70
73277;DHT22;61501;43.316;5.372;2023-04-01T11:18:11;15.40;72.60
73277;DHT22;61501;43.316;5.372;2023-04-01T11:34:01;15.60;71.10
73277;DHT22;61501;43.316;5.372;2023-04-01T11:44:39;15.40;74.50
73277;DHT22;61501;43.316;5.372;2023-04-01T11:52:59;15.80;72.70
73277;DHT22;61501;43.316;5.372;2023-04-01T12:01:10;16.00;71.50
73277;DHT22;61501;43.316;5.372;2023-04-01T12:07:08;16.90;66.10
73277;DHT22;61501;43.316;5.372;2023-04-01T12:26:43;18.20;60.40
73277;DHT22;61501;43.316;5.372;2023-04-01T12:34:58;18.30;58.20
73277;DHT22;61501;43.316;5.372;2023-04-01T12:37:49;19.10;55.30
73277;DHT22;61501;43.316;5.372;2023-04-01T12:45:35;19.10;56.40
73277;DHT22;61501;43.316;5.372;2023-04-01T12:53:47;19.30;56.10
73277;DHT22;61501;43.316;5.372;2023-04-01T13:02:00;19.40;54.50
73277;DHT22;61501;43.316;5.372;2023-04-01T13:04:32;19.30;55.60
73277;DHT22;61501;43.316;5.372;2023-04-01T13:12:40;19.50;54.10
73277;DHT22;61501;43.316;5.372;2023-04-01T13:15:32;19.30;55.40
73277;DHT22;61501;43.316;5.372;2023-04-01T13:23:41;17.20;61.40
73277;DHT22;61501;43.316;5.372;2023-04-01T13:42:57;19.10;54.90
73277;DHT22;61501;43.316;5.372;2023-04-01T13:56:50;18.70;59.90
73277;DHT22;61501;43.316;5.372;2023-04-01T14:02:44;18.60;66.50
73277;DHT22;61501;43.316;5.372;2023-04-01T14:11:10;18.20;71.80
73277;DHT22;61501;43.316;5.372;2023-04-01T14:21:44;17.20;80.90
73277;DHT22;61501;43.316;5.372;2023-04-01T14:35:30;17.10;87.20
73277;DHT22;61501;43.316;5.372;2023-04-01T14:38:27;17.20;85.00
73277;DHT22;61501;43.316;5.372;2023-04-01T14:40:58;17.40;80.90
73277;DHT22;61501;43.316;5.372;2023-04-01T14:54:51;17.10;83.10
73277;DHT22;61501;43.316;5.372;2023-04-01T14:57:24;17.30;77.50
73277;DHT22;61501;43.316;5.372;2023-04-01T15:02:45;17.40;78.60
73277;DHT22;61501;43.316;5.372;2023-04-01T15:05:32;17.50;78.80
73277;DHT22;61501;43.316;5.372;2023-04-01T15:08:08;17.40;80.20
73277;DHT22;61501;43.316;5.372;2023-04-01T15:10:51;17.20;82.80
73277;DHT22;61501;43.316;5.372;2023-04-01T15:16:27;15.80;91.20
73277;DHT22;61501;43.316;5.372;2023-04-01T15:33:52;16.80;85.50
73277;DHT22;61501;43.316;5.372;2023-04-01T15:39:17;17.00;83.20
73277;DHT22;61501;43.316;5.372;2023-04-01T15:44:49;17.30;84.20
73277;DHT22;61501;43.316;5.372;2023-04-01T15:52:50;17.80;76.30
73277;DHT22;61501;43.316;5.372;2023-04-01T15:55:19;17.70;77.80
73277;DHT22;61501;43.316;5.372;2023-04-01T15:58:17;17.30;77.30
73277;DHT22;61501;43.316;5.372;2023-04-01T16:00:51;16.80;72.20
73277;DHT22;61501;43.316;5.372;2023-04-01T16:03:45;16.50;72.10
73277;DHT22;61501;43.316;5.372;2023-04-01T16:06:35;16.40;72.80
73277;DHT22;61501;43.316;5.372;2023-04-01T16:12:12;16.00;88.30
73277;DHT22;61501;43.316;5.372;2023-04-01T16:15:16;15.90;79.60
73277;DHT22;61501;43.316;5.372;2023-04-01T16:18:05;15.90;69.90
73277;DHT22;61501;43.316;5.372;2023-04-01T16:20:40;16.20;71.40
73277;DHT22;61501;43.316;5.372;2023-04-01T16:23:50;16.80;67.70
73277;DHT22;61501;43.316;5.372;2023-04-01T16:26:36;17.00;65.20
73277;DHT22;61501;43.316;5.372;2023-04-01T16:37:12;16.10;53.80
73277;DHT22;61501;43.316;5.372;2023-04-01T16:45:19;15.70;50.80
73277;DHT22;61501;43.316;5.372;2023-04-01T16:48:13;15.40;55.00
73277;DHT22;61501;43.316;5.372;2023-04-01T16:50:56;15.30;59.00
73277;DHT22;61501;43.316;5.372;2023-04-01T16:53:37;15.10;60.00
73277;DHT22;61501;43.316;5.372;2023-04-01T16:56:24;15.10;62.00
73277;DHT22;61501;43.316;5.372;2023-04-01T17:01:44;15.10;58.90
73277;DHT22;61501;43.316;5.372;2023-04-01T17:04:40;15.10;60.50
73277;DHT22;61501;43.316;5.372;2023-04-01T17:07:33;15.10;62.00
73277;DHT22;61501;43.316;5.372;2023-04-01T17:12:49;14.90;64.30
73277;DHT22;61501;43.316;5.372;2023-04-01T17:21:18;14.80;64.00
73277;DHT22;61501;43.316;5.372;2023-04-01T17:26:48;14.80;65.60
73277;DHT22;61501;43.316;5.372;2023-04-01T17:38:13;14.90;67.50
73277;DHT22;61501;43.316;5.372;2023-04-01T17:43:47;14.90;67.60
73277;DHT22;61501;43.316;5.372;2023-04-01T18:00:18;14.80;71.80
73277;DHT22;61501;43.316;5.372;2023-04-01T18:03:13;14.70;72.30
73277;DHT22;61501;43.316;5.372;2023-04-01T18:05:50;14.70;72.50
73277;DHT22;61501;43.316;5.372;2023-04-01T18:11:13;14.60;74.20
73277;DHT22;61501;43.316;5.372;2023-04-01T18:27:45;14.60;71.90
73277;DHT22;61501;43.316;5.372;2023-04-01T18:38:31;14.40;72.70
73277;DHT22;61501;43.316;5.372;2023-04-01T18:41:38;14.40;72.30
73277;DHT22;61501;43.316;5.372;2023-04-01T18:44:41;14.40;72.70
73277;DHT22;61501;43.316;5.372;2023-04-01T18:52:43;14.30;72.50
73277;DHT22;61501;43.316;5.372;2023-04-01T18:58:32;14.20;71.00
73277;DHT22;61501;43.316;5.372;2023-04-01T19:01:13;14.20;71.40
73277;DHT22;61501;43.316;5.372;2023-04-01T19:04:00;14.20;71.40
73277;DHT22;61501;43.316;5.372;2023-04-01T19:06:45;14.10;71.50
73277;DHT22;61501;43.316;5.372;2023-04-01T19:22:55;13.90;75.30
73277;DHT22;61501;43.316;5.372;2023-04-01T19:28:20;14.10;78.00
73277;DHT22;61501;43.316;5.372;2023-04-01T19:36:41;13.90;75.00
73277;DHT22;61501;43.316;5.372;2023-04-01T19:42:39;13.40;78.20
73277;DHT22;61501;43.316;5.372;2023-04-01T19:45:38;13.20;79.60
73277;DHT22;61501;43.316;5.372;2023-04-01T19:51:39;13.00;82.00
73277;DHT22;61501;43.316;5.372;2023-04-01T19:57:25;13.00;82.00
73277;DHT22;61501;43.316;5.372;2023-04-01T20:06:24;12.80;84.00
73277;DHT22;61501;43.316;5.372;2023-04-01T20:12:18;12.80;85.20
73277;DHT22;61501;43.316;5.372;2023-04-01T20:14:51;12.80;85.50
73277;DHT22;61501;43.316;5.372;2023-04-01T20:17:32;12.80;83.60
73277;DHT22;61501;43.316;5.372;2023-04-01T20:28:22;12.70;85.20
73277;DHT22;61501;43.316;5.372;2023-04-01T20:36:51;12.70;89.20
73277;DHT22;61501;43.316;5.372;2023-04-01T20:50:59;12.60;93.30
73277;DHT22;61501;43.316;5.372;2023-04-01T20:53:51;12.50;93.40
73277;DHT22;61501;43.316;5.372;2023-04-01T21:19:08;12.40;90.40
73277;DHT22;61501;43.316;5.372;2023-04-01T21:21:50;12.30;90.20
73277;DHT22;61501;43.316;5.372;2023-04-01T21:30:41;12.30;90.30
73277;DHT22;61501;43.316;5.372;2023-04-01T21:39:21;12.30;90.20
73277;DHT22;61501;43.316;5.372;2023-04-01T21:58:48;12.10;87.90
73277;DHT22;61501;43.316;5.372;2023-04-01T22:07:17;12.20;85.90
73277;DHT22;61501;43.316;5.372;2023-04-01T22:10:24;12.20;85.70
73277;DHT22;61501;43.316;5.372;2023-04-01T22:13:14;12.10;86.20
73277;DHT22;61501;43.316;5.372;2023-04-01T22:15:59;12.10;85.40
73277;DHT22;61501;43.316;5.372;2023-04-01T22:18:33;12.00;86.80
73277;DHT22;61501;43.316;5.372;2023-04-01T22:21:04;12.00;86.10
73277;DHT22;61501;43.316;5.372;2023-04-01T22:23:43;12.00;86.40
73277;DHT22;61501;43.316;5.372;2023-04-01T22:29:16;11.90;87.90
73277;DHT22;61501;43.316;5.372;2023-04-01T22:32:15;11.80;87.50
73277;DHT22;61501;43.316;5.372;2023-04-01T22:38:03;11.80;88.80
73277;DHT22;61501;43.316;5.372;2023-04-01T22:40:47;11.80;88.30
73277;DHT22;61501;43.316;5.372;2023-04-01T22:43:36;11.80;87.80
73277;DHT22;61501;43.316;5.372;2023-04-01T22:48:46;11.70;90.10
73277;DHT22;61501;43.316;5.372;2023-04-01T22:51:51;11.70;90.00
73277;DHT22;61501;43.316;5.372;2023-04-01T22:54:23;11.70;90.10
73277;DHT22;61501;43.316;5.372;2023-04-01T22:57:28;11.70;89.00
73277;DHT22;61501;43.316;5.372;2023-04-01T22:59:46;11.70;87.60
73277;DHT22;61501;43.316;5.372;2023-04-01T23:02:16;11.70;87.60
73277;DHT22;61501;43.316;5.372;2023-04-01T23:04:51;11.70;88.40
73277;DHT22;61501;43.316;5.372;2023-04-01T23:12:54;11.80;87.00
73277;DHT22;61501;43.316;5.372;2023-04-01T23:15:22;11.80;87.00
73277;DHT22;61501;43.316;5.372;2023-04-01T23:23:39;11.90;84.30
73277;DHT22;61501;43.316;5.372;2023-04-01T23:26:32;11.90;85.10
73277;DHT22;61501;43.316;5.372;2023-04-01T23:29:00;11.80;86.70
73277;DHT22;61501;43.316;5.372;2023-04-01T23:31:40;11.80;87.50
73277;DHT22;61501;43.316;5.372;2023-04-01T23:36:47;11.80;86.50
73277;DHT22;61501;43.316;5.372;2023-04-01T23:39:40;11.70;89.10
73277;DHT22;61501;43.316;5.372;2023-04-01T23:44:57;11.70;89.40
73277;DHT22;61501;43.316;5.372;2023-04-01T23:47:38;11.70;88.70
73277;DHT22;61501;43.316;5.372;2023-04-01T23:50:14;11.70;89.90
73277;DHT22;61501;43.316;5.372;2023-04-01T23:52:51;11.60;89.80
73277;DHT22;61501;43.316;5.372;2023-04-01T23:55:23;11.60;90.00
